PROFILE

 METAR AND TAF INFORMATION
ADDS - METARS form results

(1259 UTC 16 October 2019)
http://aviationweather.gov/metar/data/
 
EGGD 161250Z AUTO 27011KT 9999 NCD 13/07 Q1003
EGGD 161220Z AUTO 27010KT 9999 OVC047 13/07 Q1003
TAF EGGD 161102Z 1612/1712 27012KT 9999 SCT030 BECMG 1617/1620 19007KT PROB40 TEMPO 1710/1712 21015G25KT 6000 SHRA BKN012 

 AIRPORT MAP

 RUNWAY INFORMATION
Runway 09 Runway length 6598 ft Runway width 151 ft
Runway elevation 613 ft Runway displaced threshold 0 ft Runway heading 86
Runway 27 Runway length 6598 ft Runway width 151 ft
Runway elevation 601 ft Runway displaced threshold 443 ft Runway heading 266

 AIRPORT FREQUENCIES
Type ATIS Name ATIS Frequency 126.025 MHZ
Type GND Name GND Frequency 121.925 MHZ
Type RDR Name RDR Frequency 136.075 MHZ
Type TWR Name TWR Frequency 133.85 MHZ

 AIRPORT NEAR NAVIGATION AIDS
Type NDB Name Bristol Frequency 414 KHZ